^^
TXWeather Station Historical Data
Daily Summary for September 20, 2021 Units:  Metric    English   Both
Daily Weekly Monthly Yearly Custom
  High: Low: Average:
Temperature: 35 °C 24.4 °C 29.1 °C
Dew Point: 25.6 °C 22.8 °C 24.1 °C
Humidity: 91% 53% 76%
Wind Speed: 19.3km/h 0km/h 8km/h
Wind Gust: 19.3km/h - -
Wind- - SSE
Pressure: 1015.8 hPa 1012.4 hPa -
Precipitation: 0 mm    
Historical Graphs
 
 
Tabular Data for September 20, 2021
Time Temperature Dew Point Pressure Wind Wind Speed Wind Gust Humidity Rainfall Rate (Hourly) solar
00:04 26.1 °C 23.3 °C 1012.4 hPa SE 3.2 km/h 8 km/h 83% 0 mm 0.00 W/m2
00:09 26.1 °C 23.3 °C 1012.4 hPa SSE 1.6 km/h 4.8 km/h 83% 0 mm 0.00 W/m2
00:14 26.1 °C 23.3 °C 1012.4 hPa SSE 4.8 km/h 4.8 km/h 83% 0 mm 0.00 W/m2
00:19 26.1 °C 23.3 °C 1012.4 hPa SSE 4.8 km/h 4.8 km/h 84% 0 mm 0.00 W/m2
00:24 26.1 °C 23.3 °C 1012.4 hPa SSE 6.4 km/h 8 km/h 84% 0 mm 0.00 W/m2
00:29 26.1 °C 23.3 °C 1012.4 hPa SSE 6.4 km/h 6.4 km/h 84% 0 mm 0.00 W/m2
00:34 26.1 °C 23.3 °C 1012.4 hPa SSE 6.4 km/h 8 km/h 84% 0 mm 0.00 W/m2
00:39 26.1 °C 23.3 °C 1012.4 hPa SSE 6.4 km/h 6.4 km/h 84% 0 mm 0.00 W/m2
00:44 26.1 °C 23.3 °C 1012.4 hPa SSE 8 km/h 8 km/h 85% 0 mm 0.00 W/m2
00:49 26.1 °C 23.3 °C 1012.4 hPa SSE 8 km/h 8 km/h 85% 0 mm 0.00 W/m2
00:54 26.1 °C 23.3 °C 1012.4 hPa SSE 6.4 km/h 6.4 km/h 85% 0 mm 0.00 W/m2
00:59 26.1 °C 23.3 °C 1012.4 hPa SSE 6.4 km/h 8 km/h 85% 0 mm 0.00 W/m2
01:04 26.1 °C 23.3 °C 1012.4 hPa SSE 3.2 km/h 3.2 km/h 85% 0 mm 0.00 W/m2
01:09 25.6 °C 23.3 °C 1012.4 hPa SSE 4.8 km/h 4.8 km/h 85% 0 mm 0.00 W/m2
01:14 25.6 °C 23.3 °C 1012.4 hPa SE 6.4 km/h 6.4 km/h 86% 0 mm 0.00 W/m2
01:19 25.6 °C 23.3 °C 1012.4 hPa SE 1.6 km/h 4.8 km/h 86% 0 mm 0.00 W/m2
01:24 25.6 °C 23.3 °C 1012.4 hPa SE 3.2 km/h 4.8 km/h 86% 0 mm 0.00 W/m2
01:29 25.6 °C 23.3 °C 1012.4 hPa SE 4.8 km/h 4.8 km/h 86% 0 mm 0.00 W/m2
01:34 25.6 °C 23.3 °C 1012.4 hPa SE 3.2 km/h 3.2 km/h 86% 0 mm 0.00 W/m2
01:39 25.6 °C 23.3 °C 1012.4 hPa SE 4.8 km/h 6.4 km/h 86% 0 mm 0.00 W/m2
01:44 25.6 °C 23.3 °C 1012.4 hPa SE 4.8 km/h 4.8 km/h 86% 0 mm 0.00 W/m2
01:49 25.6 °C 23.3 °C 1012.4 hPa SE 4.8 km/h 4.8 km/h 86% 0 mm 0.00 W/m2
01:54 25.6 °C 23.3 °C 1012.4 hPa SSE 6.4 km/h 8 km/h 86% 0 mm 0.00 W/m2
01:59 25.6 °C 23.3 °C 1012.4 hPa South 8 km/h 8 km/h 86% 0 mm 0.00 W/m2
02:04 25.6 °C 22.8 °C 1012.4 hPa South 3.2 km/h 6.4 km/h 86% 0 mm 0.00 W/m2
02:09 25.6 °C 23.3 °C 1012.4 hPa South 1.6 km/h 4.8 km/h 87% 0 mm 0.00 W/m2
02:14 25.6 °C 23.3 °C 1012.4 hPa South 3.2 km/h 4.8 km/h 87% 0 mm 0.00 W/m2
02:19 25.6 °C 23.3 °C 1012.4 hPa South 3.2 km/h 6.4 km/h 87% 0 mm 0.00 W/m2
02:24 25.6 °C 23.3 °C 1012.4 hPa South 1.6 km/h 3.2 km/h 87% 0 mm 0.00 W/m2
02:29 25.6 °C 22.8 °C 1012.4 hPa South 3.2 km/h 6.4 km/h 87% 0 mm 0.00 W/m2
02:34 25 °C 22.8 °C 1012.4 hPa South 3.2 km/h 3.2 km/h 87% 0 mm 0.00 W/m2
02:39 25 °C 22.8 °C 1012.4 hPa South 3.2 km/h 3.2 km/h 87% 0 mm 0.00 W/m2
02:44 25 °C 22.8 °C 1012.4 hPa South 6.4 km/h 6.4 km/h 87% 0 mm 0.00 W/m2
02:49 25.6 °C 22.8 °C 1012.4 hPa South 6.4 km/h 6.4 km/h 87% 0 mm 0.00 W/m2
02:54 25.6 °C 22.8 °C 1012.4 hPa South 6.4 km/h 6.4 km/h 87% 0 mm 0.00 W/m2
02:59 25.6 °C 22.8 °C 1012.4 hPa South 8 km/h 8 km/h 87% 0 mm 0.00 W/m2
03:04 25.6 °C 22.8 °C 1012.4 hPa South 3.2 km/h 4.8 km/h 87% 0 mm 0.00 W/m2
03:09 25.6 °C 22.8 °C 1012.4 hPa South 3.2 km/h 4.8 km/h 87% 0 mm 0.00 W/m2
03:14 25.6 °C 22.8 °C 1012.4 hPa South 3.2 km/h 4.8 km/h 87% 0 mm 0.00 W/m2
03:19 25 °C 22.8 °C 1012.4 hPa South 4.8 km/h 4.8 km/h 87% 0 mm 0.00 W/m2
03:24 25 °C 23.3 °C 1012.4 hPa South 1.6 km/h 3.2 km/h 88% 0 mm 0.00 W/m2
03:29 25 °C 22.8 °C 1012.4 hPa South 3.2 km/h 3.2 km/h 88% 0 mm 0.00 W/m2
03:34 25 °C 22.8 °C 1012.4 hPa South 3.2 km/h 3.2 km/h 88% 0 mm 0.00 W/m2
03:39 25 °C 22.8 °C 1012.4 hPa South 1.6 km/h 1.6 km/h 88% 0 mm 0.00 W/m2
03:44 25 °C 22.8 °C 1012.4 hPa South 1.6 km/h 1.6 km/h 89% 0 mm 0.00 W/m2
03:49 25 °C 22.8 °C 1012.4 hPa South 3.2 km/h 3.2 km/h 89% 0 mm 0.00 W/m2
03:54 25 °C 22.8 °C 1012.4 hPa South 1.6 km/h 3.2 km/h 89% 0 mm 0.00 W/m2
03:59 25 °C 22.8 °C 1012.4 hPa South 3.2 km/h 3.2 km/h 89% 0 mm 0.00 W/m2
04:04 25 °C 22.8 °C 1012.4 hPa South 3.2 km/h 3.2 km/h 89% 0 mm 0.00 W/m2
04:09 25 °C 22.8 °C 1012.4 hPa South 1.6 km/h 3.2 km/h 89% 0 mm 0.00 W/m2
04:14 25 °C 22.8 °C 1012.4 hPa South 4.8 km/h 4.8 km/h 89% 0 mm 0.00 W/m2
04:19 25 °C 22.8 °C 1012.4 hPa SSE 6.4 km/h 6.4 km/h 89% 0 mm 0.00 W/m2
04:24 25 °C 22.8 °C 1012.4 hPa SSE 3.2 km/h 3.2 km/h 89% 0 mm 0.00 W/m2
04:29 25 °C 22.8 °C 1012.4 hPa SSE 1.6 km/h 4.8 km/h 89% 0 mm 0.00 W/m2
04:34 25 °C 22.8 °C 1012.4 hPa SSE 1.6 km/h 1.6 km/h 89% 0 mm 0.00 W/m2
04:39 25 °C 22.8 °C 1012.4 hPa SSE 3.2 km/h 3.2 km/h 90% 0 mm 0.00 W/m2
04:44 25 °C 22.8 °C 1012.4 hPa SSE 1.6 km/h 3.2 km/h 90% 0 mm 0.00 W/m2
04:49 25 °C 22.8 °C 1012.4 hPa SSE 3.2 km/h 3.2 km/h 90% 0 mm 0.00 W/m2
04:54 25 °C 22.8 °C 1012.4 hPa SSE 3.2 km/h 3.2 km/h 90% 0 mm 0.00 W/m2
04:59 25 °C 22.8 °C 1012.4 hPa SSE 1.6 km/h 3.2 km/h 90% 0 mm 0.00 W/m2
05:04 25 °C 22.8 °C 1012.4 hPa SSE 6.4 km/h 6.4 km/h 90% 0 mm 0.00 W/m2
05:09 25 °C 22.8 °C 1012.4 hPa SSE 3.2 km/h 6.4 km/h 90% 0 mm 0.00 W/m2
05:14 25 °C 22.8 °C 1012.4 hPa SSE 1.6 km/h 3.2 km/h 90% 0 mm 0.00 W/m2
05:19 25 °C 22.8 °C 1012.4 hPa SSE 3.2 km/h 3.2 km/h 90% 0 mm 0.00 W/m2
05:24 24.4 °C 22.8 °C 1012.4 hPa SSE 1.6 km/h 1.6 km/h 90% 0 mm 0.00 W/m2
05:29 24.4 °C 22.8 °C 1012.4 hPa SSE 1.6 km/h 1.6 km/h 90% 0 mm 0.00 W/m2
05:34 24.4 °C 22.8 °C 1012.4 hPa Calm     90% 0 mm 0.00 W/m2
05:39 24.4 °C 22.8 °C 1012.4 hPa Calm     90% 0 mm 0.00 W/m2
05:44 24.4 °C 22.8 °C 1012.4 hPa SSE 1.6 km/h 1.6 km/h 90% 0 mm 0.00 W/m2
05:49 24.4 °C 22.8 °C 1012.4 hPa SSE 1.6 km/h 1.6 km/h 90% 0 mm 0.00 W/m2
05:54 24.4 °C 22.8 °C 1012.4 hPa Calm     91% 0 mm 0.00 W/m2
05:59 24.4 °C 22.8 °C 1012.4 hPa Calm     91% 0 mm 0.00 W/m2
06:04 24.4 °C 22.8 °C 1012.4 hPa Calm     91% 0 mm 0.00 W/m2
06:09 24.4 °C 22.8 °C 1012.4 hPa Calm     91% 0 mm 0.00 W/m2
06:14 24.4 °C 22.8 °C 1012.4 hPa SSE 1.6 km/h 1.6 km/h 91% 0 mm 0.00 W/m2
06:19 24.4 °C 22.8 °C 1012.4 hPa Calm   1.6 km/h 91% 0 mm 0.00 W/m2
06:24 24.4 °C 22.8 °C 1012.4 hPa SSE 1.6 km/h 1.6 km/h 91% 0 mm 0.00 W/m2
06:29 24.4 °C 22.8 °C 1012.4 hPa SSE 1.6 km/h 3.2 km/h 91% 0 mm 0.00 W/m2
06:34 24.4 °C 22.8 °C 1012.4 hPa SSE 1.6 km/h 3.2 km/h 91% 0 mm 0.00 W/m2
06:39 24.4 °C 22.8 °C 1012.4 hPa SSE 1.6 km/h 1.6 km/h 91% 0 mm 0.00 W/m2
06:44 24.4 °C 22.8 °C 1012.4 hPa SSE 1.6 km/h 1.6 km/h 91% 0 mm 0.00 W/m2
06:49 24.4 °C 22.8 °C 1012.4 hPa SSE 1.6 km/h 1.6 km/h 91% 0 mm 0.00 W/m2
06:54 24.4 °C 22.8 °C 1012.4 hPa SSE 1.6 km/h 1.6 km/h 91% 0 mm 0.00 W/m2
06:59 24.4 °C 22.8 °C 1012.4 hPa Calm   1.6 km/h 91% 0 mm 0.00 W/m2
07:04 24.4 °C 22.8 °C 1012.4 hPa SSE 1.6 km/h 1.6 km/h 91% 0 mm 0.00 W/m2
07:09 24.4 °C 22.8 °C 1012.4 hPa SSE 3.2 km/h 3.2 km/h 91% 0 mm 0.00 W/m2
07:14 24.4 °C 22.8 °C 1012.4 hPa SSE 1.6 km/h 3.2 km/h 91% 0 mm 0.00 W/m2
07:19 24.4 °C 22.8 °C 1012.4 hPa SSE 3.2 km/h 3.2 km/h 91% 0 mm 7.00 W/m2
07:24 24.4 °C 22.8 °C 1012.4 hPa SSE 3.2 km/h 3.2 km/h 91% 0 mm 9.00 W/m2
07:29 24.4 °C 22.8 °C 1012.4 hPa SSE 1.6 km/h 3.2 km/h 91% 0 mm 14.00 W/m2
07:34 24.4 °C 22.8 °C 1012.4 hPa SSE 3.2 km/h 3.2 km/h 91% 0 mm 21.00 W/m2
07:39 25 °C 23.3 °C 1012.4 hPa SSE 1.6 km/h 3.2 km/h 91% 0 mm 30.00 W/m2
07:44 24.4 °C 22.8 °C 1012.4 hPa Calm     91% 0 mm 32.00 W/m2
07:49 25 °C 23.3 °C 1012.4 hPa SSE 1.6 km/h 1.6 km/h 91% 0 mm 21.00 W/m2
07:54 25 °C 23.3 °C 1012.4 hPa Calm   1.6 km/h 91% 0 mm 23.00 W/m2
07:59 25 °C 23.3 °C 1012.4 hPa SSE 1.6 km/h 1.6 km/h 91% 0 mm 26.00 W/m2
08:04 25 °C 23.3 °C 1012.4 hPa SSE 3.2 km/h 3.2 km/h 91% 0 mm 28.00 W/m2
08:09 25.6 °C 23.9 °C 1012.4 hPa SSE 6.4 km/h 8 km/h 91% 0 mm 33.00 W/m2
08:14 25.6 °C 23.9 °C 1012.4 hPa SSE 6.4 km/h 6.4 km/h 91% 0 mm 62.00 W/m2
08:19 25.6 °C 23.9 °C 1012.4 hPa SSE 6.4 km/h 8 km/h 90% 0 mm 125.00 W/m2
08:24 26.1 °C 24.4 °C 1012.4 hPa SSE 6.4 km/h 6.4 km/h 90% 0 mm 214.00 W/m2
08:29 26.1 °C 24.4 °C 1012.4 hPa South 6.4 km/h 6.4 km/h 90% 0 mm 214.00 W/m2
08:34 26.1 °C 24.4 °C 1012.4 hPa SSE 6.4 km/h 6.4 km/h 89% 0 mm 204.00 W/m2
08:39 26.7 °C 24.4 °C 1012.4 hPa SSE 6.4 km/h 6.4 km/h 88% 0 mm 211.00 W/m2
08:44 26.7 °C 24.4 °C 1012.4 hPa SSE 3.2 km/h 6.4 km/h 88% 0 mm 246.00 W/m2
08:49 26.7 °C 24.4 °C 1012.4 hPa South 6.4 km/h 6.4 km/h 87% 0 mm 246.00 W/m2
08:54 27.2 °C 25 °C 1012.4 hPa South 4.8 km/h 4.8 km/h 87% 0 mm 276.00 W/m2
08:59 27.2 °C 25 °C 1015.8 hPa SSW 6.4 km/h 9.7 km/h 86% 0 mm 320.00 W/m2
09:04 27.2 °C 25 °C 1015.8 hPa SSW 4.8 km/h 9.7 km/h 85% 0 mm 323.00 W/m2
09:09 27.8 °C 25 °C 1015.8 hPa South 8 km/h 8 km/h 86% 0 mm 329.00 W/m2
09:14 28.3 °C 25 °C 1012.4 hPa SSE 8 km/h 8 km/h 85% 0 mm 392.00 W/m2
09:19 28.3 °C 25 °C 1015.8 hPa SW 12.9 km/h 12.9 km/h 84% 0 mm 425.00 W/m2
09:24 28.3 °C 25 °C 1015.8 hPa SSW 4.8 km/h 8 km/h 84% 0 mm 380.00 W/m2
09:29 28.3 °C 25 °C 1015.8 hPa SSW 6.4 km/h 8 km/h 83% 0 mm 461.00 W/m2
09:34 28.3 °C 25 °C 1015.8 hPa SSW 6.4 km/h 8 km/h 82% 0 mm 271.00 W/m2
09:39 28.9 °C 25.6 °C 1015.8 hPa SW 11.3 km/h 12.9 km/h 83% 0 mm 188.00 W/m2
09:44 28.9 °C 25.6 °C 1015.8 hPa SSW 6.4 km/h 12.9 km/h 82% 0 mm 613.00 W/m2
09:49 28.9 °C 25 °C 1015.8 hPa SW 9.7 km/h 11.3 km/h 81% 0 mm 577.00 W/m2
09:54 28.9 °C 25.6 °C 1015.8 hPa WSW 16.1 km/h 16.1 km/h 81% 0 mm 577.00 W/m2
09:59 28.9 °C 25 °C 1015.8 hPa SW 9.7 km/h 12.9 km/h 80% 0 mm 587.00 W/m2
10:04 28.9 °C 25 °C 1015.8 hPa SSW 6.4 km/h 8 km/h 80% 0 mm 587.00 W/m2
10:09 29.4 °C 25.6 °C 1015.8 hPa South 6.4 km/h 8 km/h 79% 0 mm 693.00 W/m2
10:14 29.4 °C 25 °C 1015.8 hPa SSW 9.7 km/h 11.3 km/h 78% 0 mm 265.00 W/m2
10:19 30 °C 25.6 °C 1015.8 hPa SW 9.7 km/h 11.3 km/h 79% 0 mm 244.00 W/m2
10:24 30 °C 25.6 °C 1015.8 hPa SW 11.3 km/h 11.3 km/h 79% 0 mm 248.00 W/m2
10:29 29.4 °C 25 °C 1015.8 hPa SW 12.9 km/h 12.9 km/h 77% 0 mm 768.00 W/m2
10:34 30 °C 25 °C 1015.8 hPa SW 12.9 km/h 12.9 km/h 76% 0 mm 768.00 W/m2
10:39 30 °C 25 °C 1015.8 hPa SW 11.3 km/h 11.3 km/h 75% 0 mm 758.00 W/m2
10:44 30.6 °C 25.6 °C 1015.8 hPa South 8 km/h 11.3 km/h 75% 0 mm 756.00 W/m2
10:49 30.6 °C 25.6 °C 1015.8 hPa South 14.5 km/h 14.5 km/h 73% 0 mm 737.00 W/m2
10:54 30.6 °C 25 °C 1015.8 hPa South 16.1 km/h 16.1 km/h 72% 0 mm 798.00 W/m2
10:59 30.6 °C 25.6 °C 1015.8 hPa South 11.3 km/h 16.1 km/h 73% 0 mm 809.00 W/m2
11:04 31.1 °C 25.6 °C 1015.8 hPa SSW 11.3 km/h 12.9 km/h 72% 0 mm 889.00 W/m2
11:09 31.1 °C 25.6 °C 1015.8 hPa South 9.7 km/h 12.9 km/h 72% 0 mm 889.00 W/m2
11:14 31.1 °C 25 °C 1015.8 hPa SW 12.9 km/h 12.9 km/h 71% 0 mm 645.00 W/m2
11:19 30.6 °C 25 °C 1015.8 hPa SW 8 km/h 8 km/h 72% 0 mm 779.00 W/m2
11:24 31.1 °C 25 °C 1015.8 hPa SSW 9.7 km/h 9.7 km/h 71% 0 mm 782.00 W/m2
11:29 31.1 °C 25 °C 1015.8 hPa South 6.4 km/h 8 km/h 70% 0 mm 814.00 W/m2
11:34 31.7 °C 25.6 °C 1015.8 hPa SSW 12.9 km/h 12.9 km/h 71% 0 mm 821.00 W/m2
11:39 32.2 °C 25 °C 1015.8 hPa SSE 14.5 km/h 16.1 km/h 67% 0 mm 930.00 W/m2
11:44 31.7 °C 25.6 °C 1015.8 hPa South 12.9 km/h 14.5 km/h 68% 0 mm 954.00 W/m2
11:49 32.2 °C 25.6 °C 1015.8 hPa SW 11.3 km/h 11.3 km/h 69% 0 mm 965.00 W/m2
11:54 32.2 °C 25 °C 1015.8 hPa WSW 14.5 km/h 14.5 km/h 68% 0 mm 267.00 W/m2
11:59 31.1 °C 25 °C 1015.8 hPa SSW 8 km/h 11.3 km/h 71% 0 mm 287.00 W/m2
12:04 30.6 °C 25 °C 1015.8 hPa South 4.8 km/h 11.3 km/h 72% 0 mm 186.00 W/m2
12:09 31.7 °C 25.6 °C 1015.8 hPa SW 8 km/h 11.3 km/h 72% 0 mm 970.00 W/m2
12:14 31.7 °C 25.6 °C 1015.8 hPa South 6.4 km/h 11.3 km/h 70% 0 mm 970.00 W/m2
12:19 31.7 °C 25.6 °C 1015.8 hPa SSW 9.7 km/h 11.3 km/h 70% 0 mm 932.00 W/m2
12:24 31.7 °C 25.6 °C 1015.8 hPa SSW 8 km/h 11.3 km/h 69% 0 mm 953.00 W/m2
12:29 32.2 °C 25.6 °C 1015.8 hPa South 8 km/h 9.7 km/h 69% 0 mm 953.00 W/m2
12:34 32.2 °C 25 °C 1015.8 hPa SSW 9.7 km/h 14.5 km/h 65% 0 mm 912.00 W/m2
12:39 32.2 °C 25 °C 1015.8 hPa South 17.7 km/h 17.7 km/h 65% 0 mm 912.00 W/m2
12:44 32.2 °C 25 °C 1012.4 hPa South 11.3 km/h 17.7 km/h 66% 0 mm 951.00 W/m2
12:49 32.8 °C 25 °C 1012.4 hPa South 14.5 km/h 16.1 km/h 64% 0 mm 923.00 W/m2
12:54 32.8 °C 25 °C 1012.4 hPa SSE 12.9 km/h 16.1 km/h 64% 0 mm 951.00 W/m2
12:59 32.8 °C 25.6 °C 1012.4 hPa South 8 km/h 9.7 km/h 65% 0 mm 935.00 W/m2
13:04 33.3 °C 25.6 °C 1012.4 hPa South 8 km/h 9.7 km/h 65% 0 mm 953.00 W/m2
13:09 33.3 °C 25.6 °C 1012.4 hPa SSW 9.7 km/h 9.7 km/h 65% 0 mm 990.00 W/m2
13:14 32.8 °C 25.6 °C 1012.4 hPa South 6.4 km/h 9.7 km/h 65% 0 mm 1005.00 W/m2
13:19 33.3 °C 25.6 °C 1012.4 hPa SSE 16.1 km/h 16.1 km/h 65% 0 mm 1005.00 W/m2
13:24 33.3 °C 25 °C 1012.4 hPa South 9.7 km/h 12.9 km/h 63% 0 mm 946.00 W/m2
13:29 33.3 °C 25 °C 1012.4 hPa SSE 12.9 km/h 12.9 km/h 62% 0 mm 918.00 W/m2
13:34 33.3 °C 25.6 °C 1012.4 hPa South 12.9 km/h 12.9 km/h 63% 0 mm 918.00 W/m2
13:39 33.3 °C 25.6 °C 1012.4 hPa South 4.8 km/h 9.7 km/h 65% 0 mm 935.00 W/m2
13:44 33.3 °C 25.6 °C 1012.4 hPa SSW 14.5 km/h 14.5 km/h 64% 0 mm 935.00 W/m2
13:49 33.3 °C 25 °C 1012.4 hPa WSW 8 km/h 9.7 km/h 62% 0 mm 896.00 W/m2
13:54 33.3 °C 25.6 °C 1012.4 hPa WSW 8 km/h 11.3 km/h 63% 0 mm 926.00 W/m2
13:59 33.9 °C 25.6 °C 1012.4 hPa SSE 12.9 km/h 16.1 km/h 63% 0 mm 933.00 W/m2
14:04 33.9 °C 24.4 °C 1012.4 hPa SSE 11.3 km/h 12.9 km/h 59% 0 mm 918.00 W/m2
14:09 33.3 °C 24.4 °C 1012.4 hPa SSE 6.4 km/h 6.4 km/h 61% 0 mm 949.00 W/m2
14:14 33.9 °C 25 °C 1012.4 hPa SSE 6.4 km/h 11.3 km/h 61% 0 mm 937.00 W/m2
14:19 33.9 °C 25 °C 1012.4 hPa SSW 9.7 km/h 11.3 km/h 61% 0 mm 904.00 W/m2
14:24 33.3 °C 24.4 °C 1012.4 hPa South 12.9 km/h 12.9 km/h 60% 0 mm 909.00 W/m2
14:29 33.9 °C 25 °C 1012.4 hPa South 11.3 km/h 11.3 km/h 60% 0 mm 898.00 W/m2
14:34 33.9 °C 24.4 °C 1012.4 hPa SSW 6.4 km/h 12.9 km/h 59% 0 mm 895.00 W/m2
14:39 33.9 °C 25 °C 1012.4 hPa SW 3.2 km/h 6.4 km/h 60% 0 mm 868.00 W/m2
14:44 33.9 °C 25 °C 1012.4 hPa South 11.3 km/h 11.3 km/h 60% 0 mm 905.00 W/m2
14:49 33.9 °C 25 °C 1012.4 hPa South 9.7 km/h 11.3 km/h 60% 0 mm 891.00 W/m2
14:54 33.9 °C 24.4 °C 1012.4 hPa South 8 km/h 8 km/h 58% 0 mm 884.00 W/m2
14:59 34.4 °C 25 °C 1012.4 hPa SSE 11.3 km/h 11.3 km/h 58% 0 mm 895.00 W/m2
15:04 34.4 °C 24.4 °C 1012.4 hPa SSE 19.3 km/h 19.3 km/h 57% 0 mm 875.00 W/m2
15:09 34.4 °C 24.4 °C 1012.4 hPa SSE 12.9 km/h 19.3 km/h 56% 0 mm 868.00 W/m2
15:14 33.9 °C 24.4 °C 1012.4 hPa SSE 14.5 km/h 16.1 km/h 57% 0 mm 817.00 W/m2
15:19 33.9 °C 24.4 °C 1012.4 hPa SE 14.5 km/h 14.5 km/h 57% 0 mm 809.00 W/m2
15:24 34.4 °C 23.9 °C 1012.4 hPa SE 11.3 km/h 11.3 km/h 55% 0 mm 786.00 W/m2
15:29 34.4 °C 24.4 °C 1012.4 hPa SE 16.1 km/h 16.1 km/h 56% 0 mm 782.00 W/m2
15:34 34.4 °C 24.4 °C 1012.4 hPa SSE 14.5 km/h 16.1 km/h 56% 0 mm 759.00 W/m2
15:39 34.4 °C 24.4 °C 1012.4 hPa SSE 9.7 km/h 11.3 km/h 56% 0 mm 735.00 W/m2
15:44 35 °C 24.4 °C 1012.4 hPa SSE 14.5 km/h 14.5 km/h 56% 0 mm 742.00 W/m2
15:49 35 °C 24.4 °C 1012.4 hPa South 8 km/h 9.7 km/h 55% 0 mm 742.00 W/m2
15:54 35 °C 24.4 °C 1012.4 hPa SSE 14.5 km/h 14.5 km/h 55% 0 mm 717.00 W/m2
15:59 35 °C 23.9 °C 1012.4 hPa SSE 9.7 km/h 9.7 km/h 54% 0 mm 673.00 W/m2
16:04 35 °C 23.9 °C 1012.4 hPa SSE 14.5 km/h 14.5 km/h 53% 0 mm 645.00 W/m2
16:09 35 °C 23.9 °C 1012.4 hPa SSE 14.5 km/h 14.5 km/h 54% 0 mm 642.00 W/m2
16:14 34.4 °C 23.9 °C 1012.4 hPa SSE 12.9 km/h 14.5 km/h 55% 0 mm 606.00 W/m2
16:19 34.4 °C 23.9 °C 1012.4 hPa SSE 12.9 km/h 12.9 km/h 55% 0 mm 578.00 W/m2
16:24 34.4 °C 23.9 °C 1012.4 hPa SE 11.3 km/h 12.9 km/h 54% 0 mm 568.00 W/m2
16:29 34.4 °C 23.9 °C 1012.4 hPa SE 14.5 km/h 14.5 km/h 54% 0 mm 554.00 W/m2
16:34 35 °C 23.9 °C 1012.4 hPa SE 19.3 km/h 19.3 km/h 54% 0 mm 550.00 W/m2
16:39 34.4 °C 23.9 °C 1012.4 hPa SE 16.1 km/h 19.3 km/h 54% 0 mm 534.00 W/m2
16:44 34.4 °C 23.9 °C 1012.4 hPa SSE 12.9 km/h 12.9 km/h 54% 0 mm 520.00 W/m2
16:49 34.4 °C 23.3 °C 1012.4 hPa SE 11.3 km/h 12.9 km/h 54% 0 mm 91.00 W/m2
16:54 33.9 °C 23.3 °C 1012.4 hPa SSE 6.4 km/h 11.3 km/h 55% 0 mm 123.00 W/m2
16:59 33.9 °C 23.3 °C 1012.4 hPa ESE 11.3 km/h 11.3 km/h 54% 0 mm 455.00 W/m2
17:04 34.4 °C 24.4 °C 1012.4 hPa ESE 6.4 km/h 8 km/h 56% 0 mm 450.00 W/m2
17:09 34.4 °C 23.9 °C 1012.4 hPa South 9.7 km/h 9.7 km/h 54% 0 mm 70.00 W/m2
17:14 33.9 °C 23.3 °C 1012.4 hPa SSE 11.3 km/h 12.9 km/h 55% 0 mm 397.00 W/m2
17:19 33.9 °C 23.3 °C 1012.4 hPa SSE 9.7 km/h 12.9 km/h 55% 0 mm 65.00 W/m2
17:24 33.3 °C 23.3 °C 1012.4 hPa SSE 9.7 km/h 9.7 km/h 56% 0 mm 366.00 W/m2
17:29 33.9 °C 23.3 °C 1012.4 hPa South 8 km/h 9.7 km/h 56% 0 mm 360.00 W/m2
17:34 33.9 °C 23.9 °C 1012.4 hPa SSE 11.3 km/h 12.9 km/h 55% 0 mm 339.00 W/m2
17:39 33.9 °C 23.3 °C 1012.4 hPa SSE 11.3 km/h 11.3 km/h 54% 0 mm 329.00 W/m2
17:44 33.9 °C 23.3 °C 1012.4 hPa SSE 14.5 km/h 14.5 km/h 55% 0 mm 51.00 W/m2
17:49 33.3 °C 22.8 °C 1012.4 hPa South 9.7 km/h 14.5 km/h 56% 0 mm 84.00 W/m2
17:54 32.8 °C 23.3 °C 1012.4 hPa SSE 9.7 km/h 11.3 km/h 57% 0 mm 146.00 W/m2
17:59 32.8 °C 23.3 °C 1012.4 hPa South 8 km/h 8 km/h 57% 0 mm 213.00 W/m2
18:04 33.3 °C 23.3 °C 1012.4 hPa SSE 9.7 km/h 11.3 km/h 57% 0 mm 213.00 W/m2
18:09 33.3 °C 23.3 °C 1012.4 hPa SSE 8 km/h 11.3 km/h 57% 0 mm 200.00 W/m2
18:14 33.3 °C 23.3 °C 1012.4 hPa SSE 9.7 km/h 9.7 km/h 57% 0 mm 179.00 W/m2
18:19 32.8 °C 23.3 °C 1012.4 hPa SSE 6.4 km/h 8 km/h 57% 0 mm 149.00 W/m2
18:24 33.3 °C 23.9 °C 1012.4 hPa SE 9.7 km/h 9.7 km/h 60% 0 mm 142.00 W/m2
18:29 32.8 °C 24.4 °C 1012.4 hPa SE 11.3 km/h 11.3 km/h 63% 0 mm 123.00 W/m2
18:34 32.8 °C 25 °C 1012.4 hPa SE 11.3 km/h 11.3 km/h 65% 0 mm 81.00 W/m2
18:39 32.2 °C 25 °C 1012.4 hPa SE 9.7 km/h 14.5 km/h 66% 0 mm 58.00 W/m2
18:44 32.2 °C 25 °C 1012.4 hPa SE 14.5 km/h 14.5 km/h 66% 0 mm 49.00 W/m2
18:49 31.7 °C 25 °C 1012.4 hPa SE 12.9 km/h 14.5 km/h 67% 0 mm 42.00 W/m2
18:54 31.7 °C 25 °C 1012.4 hPa SE 12.9 km/h 12.9 km/h 67% 0 mm 28.00 W/m2
18:59 31.7 °C 25 °C 1012.4 hPa SE 12.9 km/h 12.9 km/h 68% 0 mm 18.00 W/m2
19:04 31.7 °C 25 °C 1012.4 hPa SE 12.9 km/h 12.9 km/h 68% 0 mm 16.00 W/m2
19:09 31.7 °C 25 °C 1012.4 hPa SE 16.1 km/h 16.1 km/h 69% 0 mm 14.00 W/m2
19:14 31.1 °C 25 °C 1012.4 hPa SE 12.9 km/h 16.1 km/h 70% 0 mm 9.00 W/m2
19:19 31.1 °C 25 °C 1012.4 hPa SE 11.3 km/h 14.5 km/h 70% 0 mm 5.00 W/m2
19:24 31.1 °C 25 °C 1012.4 hPa SE 14.5 km/h 14.5 km/h 70% 0 mm 0.00 W/m2
19:29 30.6 °C 25 °C 1012.4 hPa SE 12.9 km/h 14.5 km/h 71% 0 mm 0.00 W/m2
19:34 30.6 °C 25 °C 1012.4 hPa SE 11.3 km/h 14.5 km/h 71% 0 mm 0.00 W/m2
19:39 30.6 °C 25 °C 1012.4 hPa SE 11.3 km/h 14.5 km/h 71% 0 mm 0.00 W/m2
19:44 30.6 °C 25 °C 1012.4 hPa SE 14.5 km/h 14.5 km/h 72% 0 mm 0.00 W/m2
19:49 30.6 °C 25 °C 1012.4 hPa SE 12.9 km/h 14.5 km/h 72% 0 mm 0.00 W/m2
19:54 30.6 °C 25 °C 1012.4 hPa SE 11.3 km/h 12.9 km/h 73% 0 mm 0.00 W/m2
19:59 30.6 °C 25 °C 1012.4 hPa SE 11.3 km/h 12.9 km/h 73% 0 mm 0.00 W/m2
20:04 30 °C 25 °C 1012.4 hPa SE 12.9 km/h 12.9 km/h 73% 0 mm 0.00 W/m2
20:09 30 °C 25 °C 1012.4 hPa SE 12.9 km/h 16.1 km/h 73% 0 mm 0.00 W/m2
20:14 30 °C 25 °C 1012.4 hPa SE 14.5 km/h 14.5 km/h 73% 0 mm 0.00 W/m2
20:19 30 °C 25 °C 1012.4 hPa SE 16.1 km/h 16.1 km/h 74% 0 mm 0.00 W/m2
20:24 30 °C 25 °C 1012.4 hPa SE 9.7 km/h 11.3 km/h 74% 0 mm 0.00 W/m2
20:29 30 °C 25 °C 1012.4 hPa SE 8 km/h 8 km/h 74% 0 mm 0.00 W/m2
20:34 30 °C 25 °C 1012.4 hPa SE 6.4 km/h 9.7 km/h 75% 0 mm 0.00 W/m2
20:39 30 °C 25 °C 1012.4 hPa SE 6.4 km/h 8 km/h 75% 0 mm 0.00 W/m2
20:44 30 °C 25 °C 1012.4 hPa SE 11.3 km/h 11.3 km/h 75% 0 mm 0.00 W/m2
20:49 29.4 °C 25 °C 1012.4 hPa SE 11.3 km/h 11.3 km/h 75% 0 mm 0.00 W/m2
20:54 29.4 °C 25 °C 1012.4 hPa SE 8 km/h 11.3 km/h 76% 0 mm 0.00 W/m2
20:59 29.4 °C 25 °C 1012.4 hPa SE 12.9 km/h 12.9 km/h 76% 0 mm 0.00 W/m2
21:04 29.4 °C 25 °C 1012.4 hPa SE 9.7 km/h 12.9 km/h 76% 0 mm 0.00 W/m2
21:09 29.4 °C 25 °C 1012.4 hPa SSE 11.3 km/h 11.3 km/h 76% 0 mm 0.00 W/m2
21:14 29.4 °C 25 °C 1012.4 hPa SSE 12.9 km/h 14.5 km/h 76% 0 mm 0.00 W/m2
21:19 29.4 °C 24.4 °C 1012.4 hPa SSE 8 km/h 14.5 km/h 76% 0 mm 0.00 W/m2
21:24 29.4 °C 24.4 °C 1012.4 hPa SSE 11.3 km/h 12.9 km/h 76% 0 mm 0.00 W/m2
21:29 29.4 °C 24.4 °C 1012.4 hPa SE 11.3 km/h 11.3 km/h 76% 0 mm 0.00 W/m2
21:34 28.9 °C 24.4 °C 1012.4 hPa SSE 6.4 km/h 6.4 km/h 76% 0 mm 0.00 W/m2
21:39 28.9 °C 24.4 °C 1012.4 hPa SSE 8 km/h 9.7 km/h 77% 0 mm 0.00 W/m2
21:44 28.9 °C 24.4 °C 1012.4 hPa SSE 6.4 km/h 6.4 km/h 77% 0 mm 0.00 W/m2
21:49 28.9 °C 24.4 °C 1012.4 hPa SSE 12.9 km/h 12.9 km/h 77% 0 mm 0.00 W/m2
21:54 28.9 °C 24.4 °C 1012.4 hPa SSE 9.7 km/h 12.9 km/h 77% 0 mm 0.00 W/m2
21:59 28.9 °C 24.4 °C 1012.4 hPa SSE 11.3 km/h 12.9 km/h 77% 0 mm 0.00 W/m2
22:04 28.9 °C 24.4 °C 1012.4 hPa SSE 6.4 km/h 12.9 km/h 77% 0 mm 0.00 W/m2
22:09 28.9 °C 24.4 °C 1012.4 hPa South 9.7 km/h 9.7 km/h 78% 0 mm 0.00 W/m2
22:14 28.9 °C 24.4 °C 1012.4 hPa SSE 11.3 km/h 11.3 km/h 78% 0 mm 0.00 W/m2
22:19 28.9 °C 24.4 °C 1012.4 hPa SSE 14.5 km/h 14.5 km/h 78% 0 mm 0.00 W/m2
22:24 28.3 °C 24.4 °C 1012.4 hPa SSE 14.5 km/h 14.5 km/h 79% 0 mm 0.00 W/m2
22:29 28.3 °C 24.4 °C 1012.4 hPa South 11.3 km/h 14.5 km/h 79% 0 mm 0.00 W/m2
22:34 28.3 °C 24.4 °C 1012.4 hPa SSE 11.3 km/h 11.3 km/h 79% 0 mm 0.00 W/m2
22:39 28.3 °C 24.4 °C 1015.8 hPa SSE 11.3 km/h 12.9 km/h 80% 0 mm 0.00 W/m2
22:44 28.3 °C 24.4 °C 1015.8 hPa SSE 9.7 km/h 11.3 km/h 80% 0 mm 0.00 W/m2
22:49 28.3 °C 24.4 °C 1015.8 hPa SSE 9.7 km/h 11.3 km/h 80% 0 mm 0.00 W/m2
22:54 28.3 °C 24.4 °C 1015.8 hPa SSE 9.7 km/h 11.3 km/h 81% 0 mm 0.00 W/m2
22:59 28.3 °C 24.4 °C 1015.8 hPa SSE 11.3 km/h 11.3 km/h 81% 0 mm 0.00 W/m2
23:04 28.3 °C 24.4 °C 1015.8 hPa South 12.9 km/h 12.9 km/h 82% 0 mm 0.00 W/m2
23:09 27.8 °C 24.4 °C 1015.8 hPa South 9.7 km/h 11.3 km/h 82% 0 mm 0.00 W/m2
23:14 27.8 °C 24.4 °C 1015.8 hPa South 12.9 km/h 12.9 km/h 82% 0 mm 0.00 W/m2
23:19 27.8 °C 24.4 °C 1015.8 hPa SSE 11.3 km/h 12.9 km/h 83% 0 mm 0.00 W/m2
23:24 27.8 °C 24.4 °C 1015.8 hPa SSE 8 km/h 9.7 km/h 83% 0 mm 0.00 W/m2
23:29 27.8 °C 24.4 °C 1015.8 hPa SSE 11.3 km/h 12.9 km/h 83% 0 mm 0.00 W/m2
23:34 27.8 °C 24.4 °C 1015.8 hPa South 9.7 km/h 11.3 km/h 83% 0 mm 0.00 W/m2
23:39 27.8 °C 24.4 °C 1015.8 hPa South 9.7 km/h 9.7 km/h 83% 0 mm 0.00 W/m2
23:44 27.8 °C 24.4 °C 1015.8 hPa South 8 km/h 8 km/h 83% 0 mm 0.00 W/m2
23:49 27.2 °C 24.4 °C 1015.8 hPa South 12.9 km/h 14.5 km/h 83% 0 mm 0.00 W/m2
23:54 27.2 °C 24.4 °C 1015.8 hPa South 9.7 km/h 14.5 km/h 83% 0 mm 0.00 W/m2
23:59 27.2 °C 24.4 °C 1015.8 hPa South 8 km/h 8 km/h 84% 0 mm 0.00 W/m2
Villages of Bridgestone, Spring, TX USA
Compliments of Weather Underground - 4 mb